createdAt,value
2019-05-12T00:02:09.922Z,6.49
2019-05-12T00:04:40.040Z,6.46
2019-05-12T00:07:11.640Z,6.41
2019-05-12T00:09:44.963Z,6.43
2019-05-12T00:12:15.115Z,6.36
2019-05-12T00:14:48.397Z,6.38
2019-05-12T00:17:18.752Z,6.31
2019-05-12T00:19:49.147Z,6.31
2019-05-12T00:22:21.266Z,6.25
2019-05-12T00:24:51.377Z,6.21
2019-05-12T00:27:22.946Z,6.16
2019-05-12T00:29:53.976Z,6.16
2019-05-12T00:32:24.324Z,6.14
2019-05-12T00:34:54.429Z,6.00
2019-05-12T00:37:24.668Z,6.11
2019-05-12T00:39:54.873Z,5.97
2019-05-12T00:42:26.084Z,5.99
2019-05-12T00:44:58.434Z,5.91
2019-05-12T00:47:28.131Z,5.94
2019-05-12T00:49:58.426Z,5.92
2019-05-12T00:52:28.529Z,5.83
2019-05-12T00:54:58.718Z,5.84
2019-05-12T00:57:28.811Z,5.83
2019-05-12T00:59:58.945Z,5.82
2019-05-12T01:02:29.006Z,5.76
2019-05-12T01:04:59.199Z,5.72
2019-05-12T01:07:29.340Z,5.73
2019-05-12T01:10:01.381Z,5.72
2019-05-12T01:12:31.569Z,5.71
2019-05-12T01:15:01.694Z,5.68
2019-05-12T01:17:31.899Z,5.61
2019-05-12T01:20:02.061Z,5.66
2019-05-12T01:22:32.198Z,5.58
2019-05-12T01:25:02.323Z,5.54
2019-05-12T01:27:32.507Z,5.57
2019-05-12T01:30:02.707Z,5.55
2019-05-12T01:32:38.233Z,5.45
2019-05-12T01:35:09.353Z,5.36
2019-05-12T01:37:39.519Z,5.46
2019-05-12T01:40:12.099Z,5.41
2019-05-12T01:42:42.171Z,5.37
2019-05-12T01:45:12.443Z,5.32
2019-05-12T01:47:45.362Z,5.28
2019-05-12T01:50:14.479Z,5.23
2019-05-12T01:52:44.569Z,5.28
2019-05-12T01:55:14.687Z,5.27
2019-05-12T01:57:44.763Z,5.22
2019-05-12T02:00:18.301Z,5.16
2019-05-12T02:02:48.461Z,5.15
2019-05-12T02:05:22.553Z,5.05
2019-05-12T02:07:58.239Z,5.13
2019-05-12T02:10:28.704Z,5.13
2019-05-12T02:12:59.669Z,5.07
2019-05-12T02:15:29.858Z,5.06
2019-05-12T02:17:59.983Z,5.09
2019-05-12T02:20:30.091Z,4.97
2019-05-12T02:23:00.174Z,5.00
2019-05-12T02:25:30.345Z,5.01
2019-05-12T02:28:00.424Z,4.98
2019-05-12T02:30:31.331Z,4.90
2019-05-12T02:33:01.440Z,4.86
2019-05-12T02:35:35.186Z,4.89
2019-05-12T02:38:05.142Z,4.95
2019-05-12T02:40:35.652Z,4.87
2019-05-12T02:43:06.006Z,4.89
2019-05-12T02:45:36.387Z,4.90
2019-05-12T02:48:06.566Z,4.89
2019-05-12T02:50:38.072Z,4.86
2019-05-12T02:53:08.471Z,4.85
2019-05-12T02:55:39.435Z,4.80
2019-05-12T02:58:14.963Z,4.78
2019-05-12T03:00:45.709Z,4.84
2019-05-12T03:03:18.943Z,4.78
2019-05-12T03:05:50.809Z,4.76
2019-05-12T03:08:26.137Z,4.78
2019-05-12T03:10:55.876Z,4.78
2019-05-12T03:13:25.952Z,4.71
2019-05-12T03:15:56.144Z,4.68
2019-05-12T03:18:26.242Z,4.67
2019-05-12T03:20:56.436Z,4.71
2019-05-12T03:23:26.545Z,4.64
2019-05-12T03:25:56.759Z,4.69
2019-05-12T03:28:26.859Z,4.53
2019-05-12T03:30:58.256Z,4.58
2019-05-12T03:33:36.045Z,4.61
2019-05-12T03:36:01.625Z,4.63
2019-05-12T03:38:35.701Z,4.55
2019-05-12T03:41:05.314Z,4.51
2019-05-12T03:43:35.871Z,4.66
2019-05-12T03:46:06.050Z,4.63
2019-05-12T03:48:36.188Z,4.63
2019-05-12T03:51:06.276Z,4.52
2019-05-12T03:53:36.395Z,4.49
2019-05-12T03:56:06.496Z,4.51
2019-05-12T03:58:36.613Z,4.52
2019-05-12T04:01:06.928Z,4.51
2019-05-12T04:03:37.064Z,4.49
2019-05-12T04:06:07.161Z,4.47
2019-05-12T04:08:37.287Z,4.50
2019-05-12T04:11:07.396Z,4.61
2019-05-12T04:13:37.501Z,4.60
2019-05-12T04:16:08.974Z,4.55
2019-05-12T04:18:39.123Z,4.65
2019-05-12T04:21:09.271Z,4.65
2019-05-12T04:23:39.389Z,4.71
2019-05-12T04:26:13.366Z,4.73
2019-05-12T04:28:41.369Z,4.76
2019-05-12T04:31:11.450Z,4.68
2019-05-12T04:33:44.992Z,4.64
2019-05-12T04:36:15.454Z,4.68
2019-05-12T04:38:45.579Z,4.68
2019-05-12T04:41:20.013Z,4.71
2019-05-12T04:43:49.506Z,4.67
2019-05-12T04:46:19.632Z,4.69
2019-05-12T04:48:49.771Z,4.80
2019-05-12T04:51:19.906Z,4.75
2019-05-12T04:53:54.715Z,4.78
2019-05-12T04:56:26.635Z,4.80
2019-05-12T04:58:56.765Z,4.88
2019-05-12T05:01:26.874Z,4.92
2019-05-12T05:03:56.984Z,5.00
2019-05-12T05:06:27.115Z,4.95
2019-05-12T05:08:57.937Z,5.04
2019-05-12T05:11:27.999Z,4.94
2019-05-12T05:13:58.108Z,5.01
2019-05-12T05:16:30.640Z,5.12
2019-05-12T05:19:09.320Z,5.18
2019-05-12T05:21:54.193Z,5.17
2019-05-12T05:24:28.861Z,5.33
2019-05-12T05:26:58.918Z,5.72
2019-05-12T05:29:29.048Z,6.01
2019-05-12T05:31:59.723Z,6.11
2019-05-12T05:34:31.127Z,6.01
2019-05-12T05:37:08.160Z,5.91
2019-05-12T05:39:47.931Z,5.84
2019-05-12T05:42:13.523Z,5.74
2019-05-12T05:44:43.729Z,5.72
2019-05-12T05:47:19.889Z,5.68
2019-05-12T05:49:49.684Z,5.75
2019-05-12T05:52:26.577Z,5.74
2019-05-12T05:54:55.835Z,5.80
2019-05-12T05:57:29.743Z,5.92
2019-05-12T05:59:57.758Z,5.85
2019-05-12T06:02:39.641Z,5.92
2019-05-12T06:05:04.528Z,6.01
2019-05-12T06:07:44.320Z,6.11
2019-05-12T06:10:16.799Z,6.20
2019-05-12T06:12:50.807Z,6.22
2019-05-12T06:15:18.778Z,6.19
2019-05-12T06:17:48.871Z,6.29
2019-05-12T06:20:19.053Z,6.35
2019-05-12T06:22:57.626Z,6.43
2019-05-12T06:25:44.602Z,6.51
2019-05-12T06:28:01.285Z,6.52
2019-05-12T06:30:37.465Z,6.56
2019-05-12T06:33:06.986Z,6.62
2019-05-12T06:35:42.361Z,6.71
2019-05-12T06:38:14.494Z,6.74
2019-05-12T06:40:45.596Z,6.85
2019-05-12T06:43:15.865Z,6.87
2019-05-12T06:45:46.011Z,6.99
2019-05-12T06:48:19.224Z,7.02
2019-05-12T06:50:49.054Z,7.07
2019-05-12T06:53:25.480Z,7.12
2019-05-12T06:55:53.989Z,7.20
2019-05-12T06:58:29.794Z,7.22
2019-05-12T07:00:57.206Z,7.31
2019-05-12T07:03:30.824Z,7.35
2019-05-12T07:06:03.940Z,7.46
2019-05-12T07:08:43.853Z,7.58
2019-05-12T07:11:16.626Z,7.61
2019-05-12T07:14:01.353Z,7.72
2019-05-12T07:16:25.108Z,7.84
2019-05-12T07:18:54.228Z,7.85
2019-05-12T07:21:27.477Z,7.94
2019-05-12T07:24:00.419Z,8.11
2019-05-12T07:26:35.259Z,8.30
2019-05-12T07:29:05.444Z,8.66
2019-05-12T07:31:36.021Z,8.81
2019-05-12T07:34:07.842Z,8.94
2019-05-12T07:36:40.449Z,9.03
2019-05-12T07:39:10.827Z,9.22
2019-05-12T07:41:50.415Z,9.37
2019-05-12T07:44:15.011Z,9.27
2019-05-12T07:46:49.321Z,9.17
2019-05-12T07:49:22.618Z,9.30
2019-05-12T07:51:57.433Z,9.55
2019-05-12T07:54:34.119Z,9.54
2019-05-12T07:57:03.646Z,9.65
2019-05-12T07:59:39.569Z,9.58
2019-05-12T08:02:05.869Z,9.77
2019-05-12T08:04:39.738Z,10.01
2019-05-12T08:07:19.863Z,10.38
2019-05-12T08:09:50.167Z,10.41
2019-05-12T08:12:21.151Z,10.38
2019-05-12T08:14:54.089Z,10.42
2019-05-12T08:17:24.643Z,10.57
2019-05-12T08:19:57.185Z,10.69
2019-05-12T08:22:29.518Z,10.57
2019-05-12T08:24:59.816Z,10.40
2019-05-12T08:27:29.954Z,10.33
2019-05-12T08:30:02.995Z,10.16
2019-05-12T08:32:33.816Z,10.05
2019-05-12T08:35:06.685Z,10.17
2019-05-12T08:37:36.838Z,10.51
2019-05-12T08:40:09.733Z,10.77
2019-05-12T08:42:39.869Z,10.59
2019-05-12T08:45:15.257Z,10.53
2019-05-12T08:47:44.041Z,10.43
2019-05-12T08:50:13.888Z,10.47
2019-05-12T08:52:47.496Z,10.87
2019-05-12T08:55:25.163Z,11.13
2019-05-12T08:57:49.808Z,11.04
2019-05-12T09:00:39.740Z,11.04
2019-05-12T09:03:08.651Z,10.99
2019-05-12T09:05:39.268Z,11.05
2019-05-12T09:08:14.179Z,11.09
2019-05-12T09:10:45.185Z,10.83
2019-05-12T09:13:15.430Z,10.77
2019-05-12T09:15:45.547Z,10.61
2019-05-12T09:18:18.908Z,10.88
2019-05-12T09:20:52.776Z,11.05
2019-05-12T09:23:20.575Z,11.53
2019-05-12T09:25:53.774Z,11.57
2019-05-12T09:28:24.071Z,11.36
2019-05-12T09:30:54.978Z,11.45
2019-05-12T09:33:31.893Z,11.47
2019-05-12T09:35:59.648Z,11.53
2019-05-12T09:38:29.771Z,11.51
2019-05-12T09:41:01.171Z,11.53
2019-05-12T09:43:34.217Z,11.79
2019-05-12T09:46:04.177Z,11.68
2019-05-12T09:48:39.196Z,11.71
2019-05-12T09:51:09.178Z,11.68
2019-05-12T09:53:42.904Z,11.92
2019-05-12T09:56:14.297Z,12.14
2019-05-12T09:58:58.209Z,12.10
2019-05-12T10:01:16.890Z,11.97
2019-05-12T10:03:47.008Z,11.95
2019-05-12T10:06:21.091Z,12.00
2019-05-12T10:08:54.631Z,11.68
2019-05-12T10:11:25.754Z,12.01
2019-05-12T10:14:00.441Z,12.31
2019-05-12T10:16:33.254Z,12.65
2019-05-12T10:19:03.958Z,12.83
2019-05-12T10:21:36.380Z,12.52
2019-05-12T10:24:07.169Z,12.48
2019-05-12T10:26:41.304Z,12.57
2019-05-12T10:29:20.286Z,12.64
2019-05-12T10:31:50.095Z,12.89
2019-05-12T10:34:29.245Z,12.59
2019-05-12T10:37:04.222Z,12.42
2019-05-12T10:39:35.504Z,12.71
2019-05-12T10:42:05.792Z,13.03
2019-05-12T10:44:40.523Z,12.94
2019-05-12T10:47:10.575Z,12.93
2019-05-12T10:49:44.039Z,13.08
2019-05-12T10:52:15.044Z,13.48
2019-05-12T10:54:45.734Z,13.44
2019-05-12T10:57:17.064Z,13.20
2019-05-12T10:59:50.115Z,12.60
2019-05-12T11:02:25.732Z,12.56
2019-05-12T11:04:54.287Z,12.67
2019-05-12T11:07:28.088Z,12.85
2019-05-12T11:10:03.579Z,13.06
2019-05-12T11:12:34.583Z,12.86
2019-05-12T11:15:06.635Z,12.82
2019-05-12T11:17:54.656Z,13.34
2019-05-12T11:20:26.706Z,13.50
2019-05-12T11:23:03.293Z,13.38
2019-05-12T11:25:33.968Z,13.00
2019-05-12T11:28:04.572Z,12.72
2019-05-12T11:30:40.818Z,12.65
2019-05-12T11:33:11.189Z,13.05
2019-05-12T11:35:44.757Z,13.59
2019-05-12T11:38:15.344Z,13.57
2019-05-12T11:40:46.126Z,13.34
2019-05-12T11:43:18.186Z,13.15
2019-05-12T11:45:48.552Z,13.30
2019-05-12T11:48:18.673Z,13.66
2019-05-12T11:50:51.457Z,13.71
2019-05-12T11:53:31.230Z,13.53
2019-05-12T11:56:02.225Z,13.17
2019-05-12T11:58:30.613Z,13.03
2019-05-12T12:01:06.314Z,13.11
2019-05-12T12:03:34.313Z,13.45
2019-05-12T12:06:04.497Z,13.88
2019-05-12T12:08:37.416Z,13.87
2019-05-12T12:11:10.585Z,13.53
2019-05-12T12:13:41.119Z,13.32
2019-05-12T12:16:11.552Z,13.05
2019-05-12T12:18:46.675Z,13.18
2019-05-12T12:21:19.028Z,13.37
2019-05-12T12:23:53.418Z,13.36
2019-05-12T12:26:30.039Z,13.16
2019-05-12T12:28:57.758Z,12.73
2019-05-12T12:31:34.647Z,12.76
2019-05-12T12:34:01.491Z,12.78
2019-05-12T12:36:34.196Z,13.23
2019-05-12T12:39:07.165Z,13.71
2019-05-12T12:41:37.978Z,14.14
2019-05-12T12:44:09.830Z,14.09
2019-05-12T12:46:44.031Z,13.62
2019-05-12T12:49:16.498Z,13.34
2019-05-12T12:51:53.168Z,13.18
2019-05-12T12:54:23.754Z,12.98
2019-05-12T12:56:54.030Z,12.98
2019-05-12T12:59:27.183Z,13.09
2019-05-12T13:01:59.090Z,13.35
2019-05-12T13:04:29.349Z,13.49
2019-05-12T13:06:59.521Z,13.42
2019-05-12T13:09:29.803Z,13.33
2019-05-12T13:11:59.966Z,13.21
2019-05-12T13:14:36.499Z,13.57
2019-05-12T13:17:03.866Z,13.88
2019-05-12T13:19:33.856Z,14.31
2019-05-12T13:22:09.122Z,14.76
2019-05-12T13:24:40.563Z,14.33
2019-05-12T13:27:10.783Z,14.03
2019-05-12T13:29:41.524Z,13.87
2019-05-12T13:32:13.726Z,13.80
2019-05-12T13:34:44.198Z,13.65
2019-05-12T13:37:19.187Z,13.49
2019-05-12T13:39:55.306Z,13.53
2019-05-12T13:42:20.434Z,13.57
2019-05-12T13:44:53.125Z,13.58
2019-05-12T13:47:29.043Z,13.60
2019-05-12T13:49:57.029Z,13.90
2019-05-12T13:52:30.341Z,14.23
2019-05-12T13:55:00.207Z,14.65
2019-05-12T13:57:34.192Z,14.51
2019-05-12T14:00:10.606Z,14.40
2019-05-12T14:02:39.705Z,14.19
2019-05-12T14:05:14.181Z,14.36
2019-05-12T14:07:43.936Z,14.53
2019-05-12T14:10:14.358Z,14.78
2019-05-12T14:12:44.605Z,14.83
2019-05-12T14:15:15.017Z,14.81
2019-05-12T14:17:46.730Z,14.83
2019-05-12T14:20:20.271Z,14.73
2019-05-12T14:22:53.958Z,15.02
2019-05-12T14:25:29.864Z,15.03
2019-05-12T14:27:59.472Z,15.05
2019-05-12T14:30:28.515Z,14.77
2019-05-12T14:32:59.287Z,14.58
2019-05-12T14:35:41.178Z,14.66
2019-05-12T14:38:14.250Z,14.53
2019-05-12T14:40:48.065Z,14.78
2019-05-12T14:43:21.298Z,15.00
2019-05-12T14:45:50.073Z,15.46
2019-05-12T14:48:21.899Z,15.33
2019-05-12T14:50:53.801Z,15.33
2019-05-12T14:53:23.981Z,15.13
2019-05-12T14:55:54.123Z,15.07
2019-05-12T14:58:24.427Z,14.58
2019-05-12T15:00:56.389Z,14.24
2019-05-12T15:03:26.362Z,14.42
2019-05-12T15:05:56.581Z,13.85
2019-05-12T15:08:35.910Z,13.66
2019-05-12T15:10:59.872Z,13.42
2019-05-12T15:13:30.001Z,13.23
2019-05-12T15:16:00.310Z,13.30
2019-05-12T15:18:32.104Z,13.25
2019-05-12T15:21:04.752Z,13.20
2019-05-12T15:23:37.450Z,13.20
2019-05-12T15:26:09.635Z,14.01
2019-05-12T15:28:38.669Z,15.26
2019-05-12T15:31:08.846Z,15.43
2019-05-12T15:33:39.017Z,15.82
2019-05-12T15:36:09.212Z,16.05
2019-05-12T15:38:39.407Z,16.44
2019-05-12T15:41:20.107Z,15.11
2019-05-12T15:43:49.375Z,15.33
2019-05-12T15:46:24.554Z,15.95
2019-05-12T15:48:54.692Z,16.19
2019-05-12T15:51:29.525Z,16.13
2019-05-12T15:54:09.709Z,15.66
2019-05-12T15:56:31.846Z,15.16
2019-05-12T15:59:02.668Z,14.99
2019-05-12T16:01:33.593Z,15.35
2019-05-12T16:04:03.974Z,15.34
2019-05-12T16:06:45.104Z,16.17
2019-05-12T16:09:13.471Z,16.34
2019-05-12T16:11:45.307Z,16.52
2019-05-12T16:14:15.503Z,16.55
2019-05-12T16:16:47.149Z,16.12
2019-05-12T16:19:19.202Z,16.46
2019-05-12T16:21:49.601Z,16.71
2019-05-12T16:24:19.741Z,16.76
2019-05-12T16:26:51.916Z,16.75
2019-05-12T16:29:23.311Z,17.36
2019-05-12T16:31:54.497Z,17.13
2019-05-12T16:34:24.771Z,16.93
2019-05-12T16:36:56.168Z,16.80
2019-05-12T16:43:18.438Z,16.89
2019-05-12T16:45:50.132Z,16.98
2019-05-12T16:48:30.429Z,16.81
2019-05-12T16:50:53.613Z,16.60
2019-05-12T16:53:27.788Z,16.66
2019-05-12T16:55:55.733Z,16.90
2019-05-12T16:58:33.327Z,16.51
2019-05-12T17:00:57.852Z,16.64
2019-05-12T17:03:30.436Z,16.95
2019-05-12T17:06:00.569Z,17.54
2019-05-12T17:08:30.930Z,17.34
2019-05-12T17:11:21.537Z,17.17
2019-05-12T17:13:34.012Z,16.82
2019-05-12T17:16:04.521Z,16.87
2019-05-12T17:18:37.606Z,17.21
2019-05-12T17:21:07.753Z,17.20
2019-05-12T17:23:37.988Z,16.99
2019-05-12T17:26:08.236Z,16.61
2019-05-12T17:28:38.358Z,16.46
2019-05-12T17:31:08.654Z,16.13
2019-05-12T17:33:39.410Z,16.49
2019-05-12T17:36:12.412Z,16.09
2019-05-12T17:38:44.711Z,15.53
2019-05-12T17:41:18.105Z,14.51
2019-05-12T17:43:56.911Z,14.07
2019-05-12T17:46:23.444Z,13.75
2019-05-12T17:48:55.258Z,13.65
2019-05-12T17:51:30.842Z,13.49
2019-05-12T17:53:59.596Z,13.34
2019-05-12T17:56:34.123Z,13.23
2019-05-12T17:59:04.971Z,12.86
2019-05-12T18:01:44.662Z,12.97
2019-05-12T18:04:20.375Z,12.79
2019-05-12T18:06:47.830Z,12.53
2019-05-12T18:09:20.130Z,12.51
2019-05-12T18:11:54.261Z,12.49
2019-05-12T18:14:27.285Z,12.38
2019-05-12T18:17:02.662Z,12.36
2019-05-12T18:19:26.299Z,12.32
2019-05-12T18:22:03.224Z,12.21
2019-05-12T18:24:28.446Z,12.10
2019-05-12T18:27:04.245Z,11.92
2019-05-12T18:29:30.435Z,11.97
2019-05-12T18:32:04.948Z,11.84
2019-05-12T18:34:36.026Z,11.71
2019-05-12T18:37:06.209Z,11.75
2019-05-12T18:39:37.007Z,11.71
2019-05-12T18:42:10.198Z,11.67
2019-05-12T18:44:40.320Z,11.46
2019-05-12T18:47:14.358Z,11.26
2019-05-12T18:49:47.934Z,11.31
2019-05-12T18:52:14.739Z,11.39
2019-05-12T18:54:52.097Z,11.25
2019-05-12T18:57:20.379Z,11.22
2019-05-12T18:59:55.057Z,11.03
2019-05-12T19:02:27.605Z,10.99
2019-05-12T19:04:54.311Z,10.99
2019-05-12T19:07:38.658Z,10.91
2019-05-12T19:10:00.207Z,10.86
2019-05-12T19:12:32.580Z,10.77
2019-05-12T19:15:04.406Z,10.76
2019-05-12T19:17:40.982Z,10.69
2019-05-12T19:20:13.262Z,10.53
2019-05-12T19:22:48.111Z,10.45
2019-05-12T19:25:19.486Z,10.40
2019-05-12T19:28:04.663Z,10.24
2019-05-12T19:30:25.229Z,10.18
2019-05-12T19:32:54.985Z,10.23
2019-05-12T19:35:25.242Z,10.11
2019-05-12T19:38:01.727Z,10.01
2019-05-12T19:40:30.544Z,9.97
2019-05-12T19:43:07.917Z,10.05
2019-05-12T19:45:33.878Z,9.97
2019-05-12T19:48:04.294Z,9.88
2019-05-12T19:50:34.598Z,9.80
2019-05-12T19:53:10.352Z,9.74
2019-05-12T19:55:39.854Z,9.64
2019-05-12T19:58:12.701Z,9.67
2019-05-12T20:00:43.959Z,9.52
2019-05-12T20:03:14.325Z,9.42
2019-05-12T20:05:44.566Z,9.47
2019-05-12T20:08:16.753Z,9.44
2019-05-12T20:10:49.383Z,9.28
2019-05-12T20:13:19.024Z,9.32
2019-05-12T20:15:49.157Z,9.29
2019-05-12T20:18:20.322Z,9.21
2019-05-12T20:20:50.668Z,9.13
2019-05-12T20:23:24.398Z,9.07
2019-05-12T20:25:54.175Z,9.04
2019-05-12T20:28:24.499Z,9.07
2019-05-12T20:31:01.073Z,9.08
2019-05-12T20:33:26.871Z,9.00
2019-05-12T20:35:57.029Z,9.02
2019-05-12T20:38:34.247Z,8.95
2019-05-12T20:40:59.316Z,8.83
2019-05-12T20:43:36.720Z,8.79
2019-05-12T20:46:03.616Z,8.76
2019-05-12T20:48:33.916Z,8.63
2019-05-12T20:51:08.683Z,8.59
2019-05-12T20:53:36.775Z,8.50
2019-05-12T20:56:12.108Z,8.54
2019-05-12T20:58:43.689Z,8.43
2019-05-12T21:01:13.932Z,8.51
2019-05-12T21:03:46.396Z,8.45
2019-05-12T21:06:18.402Z,8.34
2019-05-12T21:08:53.792Z,8.34
2019-05-12T21:11:19.457Z,8.28
2019-05-12T21:13:54.351Z,8.27
2019-05-12T21:16:31.166Z,8.14
2019-05-12T21:19:07.513Z,8.16
2019-05-12T21:21:36.928Z,8.09
2019-05-12T21:24:05.244Z,8.04
2019-05-12T21:26:37.944Z,8.04
2019-05-12T21:29:08.281Z,8.03
2019-05-12T21:31:38.590Z,7.98
2019-05-12T21:34:13.148Z,7.99
2019-05-12T21:36:44.379Z,7.91
2019-05-12T21:39:15.835Z,7.86
2019-05-12T21:41:50.721Z,7.81
2019-05-12T21:44:17.969Z,7.87
2019-05-12T21:47:00.994Z,7.83
2019-05-12T21:49:19.979Z,7.71
2019-05-12T21:51:50.524Z,7.63
2019-05-12T21:54:24.010Z,7.64
2019-05-12T21:56:56.345Z,7.57
2019-05-12T21:59:29.006Z,7.54
2019-05-12T22:01:58.631Z,7.44
2019-05-12T22:04:32.925Z,7.42
2019-05-12T22:07:00.727Z,7.40
2019-05-12T22:09:32.893Z,7.40
2019-05-12T22:12:03.907Z,7.33
2019-05-12T22:14:36.561Z,7.34
2019-05-12T22:17:14.607Z,7.30
2019-05-12T22:19:44.719Z,7.18
2019-05-12T22:22:19.543Z,7.15
2019-05-12T22:24:47.775Z,7.09
2019-05-12T22:27:22.888Z,7.08
2019-05-12T22:29:49.791Z,6.90
2019-05-12T22:32:25.363Z,6.96
2019-05-12T22:34:54.334Z,7.00
2019-05-12T22:37:24.008Z,6.91
2019-05-12T22:39:54.172Z,6.86
2019-05-12T22:42:25.407Z,6.92
2019-05-12T22:45:01.457Z,6.86
2019-05-12T22:47:27.597Z,6.76
2019-05-12T22:49:57.724Z,6.74
2019-05-12T22:52:27.893Z,6.79
2019-05-12T22:54:58.013Z,6.74
2019-05-12T22:57:29.281Z,6.61
2019-05-12T23:00:00.105Z,6.54
2019-05-12T23:02:30.265Z,6.59
2019-05-12T23:05:00.389Z,6.58
2019-05-12T23:07:30.609Z,6.57
2019-05-12T23:10:07.042Z,6.56
2019-05-12T23:12:34.352Z,6.42
2019-05-12T23:15:07.157Z,6.42
2019-05-12T23:17:38.964Z,6.51
2019-05-12T23:20:09.220Z,6.45
2019-05-12T23:22:39.420Z,6.29
2019-05-12T23:25:11.316Z,6.27
2019-05-12T23:27:44.060Z,6.33
2019-05-12T23:30:15.877Z,6.29
2019-05-12T23:32:51.494Z,6.18
2019-05-12T23:35:17.811Z,6.25
2019-05-12T23:37:49.052Z,6.24
2019-05-12T23:40:19.147Z,6.16
2019-05-12T23:42:49.334Z,6.15
2019-05-12T23:45:19.462Z,6.11
2019-05-12T23:47:49.634Z,6.04
2019-05-12T23:50:19.716Z,6.01
2019-05-12T23:52:49.910Z,5.98
2019-05-12T23:55:20.078Z,5.91
2019-05-12T23:57:50.234Z,5.93
